sensor_id;sensor_type;location;lat;lon;timestamp;P1;durP1;ratioP1;P2;durP2;ratioP2
48002;SDS011;33768;48.578;11.574;2023-07-29T00:01:59;4.83;;;3.53;;
48002;SDS011;33768;48.578;11.574;2023-07-29T00:05:04;4.43;;;3.93;;
48002;SDS011;33768;48.578;11.574;2023-07-29T00:08:08;4.53;;;3.40;;
48002;SDS011;33768;48.578;11.574;2023-07-29T00:11:12;5.47;;;3.77;;
48002;SDS011;33768;48.578;11.574;2023-07-29T00:14:16;6.93;;;4.27;;
48002;SDS011;33768;48.578;11.574;2023-07-29T00:17:20;6.83;;;4.10;;
48002;SDS011;33768;48.578;11.574;2023-07-29T00:20:25;8.70;;;4.03;;
48002;SDS011;33768;48.578;11.574;2023-07-29T00:23:29;3.87;;;3.40;;
48002;SDS011;33768;48.578;11.574;2023-07-29T00:26:33;5.27;;;3.77;;
48002;SDS011;33768;48.578;11.574;2023-07-29T00:29:38;5.87;;;3.90;;
48002;SDS011;33768;48.578;11.574;2023-07-29T00:32:42;4.67;;;3.40;;
48002;SDS011;33768;48.578;11.574;2023-07-29T00:35:46;3.33;;;3.03;;
48002;SDS011;33768;48.578;11.574;2023-07-29T00:38:50;5.33;;;4.10;;
48002;SDS011;33768;48.578;11.574;2023-07-29T00:41:56;6.13;;;3.50;;
48002;SDS011;33768;48.578;11.574;2023-07-29T00:45:00;4.40;;;3.17;;
48002;SDS011;33768;48.578;11.574;2023-07-29T00:48:05;3.67;;;3.13;;
48002;SDS011;33768;48.578;11.574;2023-07-29T00:51:10;4.97;;;3.20;;
48002;SDS011;33768;48.578;11.574;2023-07-29T00:54:14;3.93;;;3.20;;
48002;SDS011;33768;48.578;11.574;2023-07-29T00:57:18;5.77;;;3.33;;
48002;SDS011;33768;48.578;11.574;2023-07-29T01:00:23;4.43;;;2.77;;
48002;SDS011;33768;48.578;11.574;2023-07-29T01:03:28;4.83;;;3.20;;
48002;SDS011;33768;48.578;11.574;2023-07-29T01:06:46;3.93;;;2.60;;
48002;SDS011;33768;48.578;11.574;2023-07-29T01:10:07;6.67;;;2.83;;
48002;SDS011;33768;48.578;11.574;2023-07-29T01:13:23;4.80;;;3.20;;
48002;SDS011;33768;48.578;11.574;2023-07-29T01:16:30;5.37;;;2.90;;
48002;SDS011;33768;48.578;11.574;2023-07-29T01:22:57;4.63;;;2.80;;
48002;SDS011;33768;48.578;11.574;2023-07-29T01:26:02;3.07;;;2.77;;
48002;SDS011;33768;48.578;11.574;2023-07-29T01:29:07;5.30;;;3.20;;
48002;SDS011;33768;48.578;11.574;2023-07-29T01:32:11;5.30;;;2.53;;
48002;SDS011;33768;48.578;11.574;2023-07-29T01:35:25;3.37;;;2.40;;
48002;SDS011;33768;48.578;11.574;2023-07-29T01:38:36;5.03;;;3.20;;
48002;SDS011;33768;48.578;11.574;2023-07-29T01:41:43;9.93;;;3.20;;
48002;SDS011;33768;48.578;11.574;2023-07-29T01:44:47;5.77;;;2.73;;
48002;SDS011;33768;48.578;11.574;2023-07-29T01:47:51;4.20;;;3.00;;
48002;SDS011;33768;48.578;11.574;2023-07-29T01:50:55;5.80;;;2.50;;
48002;SDS011;33768;48.578;11.574;2023-07-29T01:54:01;7.30;;;3.00;;
48002;SDS011;33768;48.578;11.574;2023-07-29T01:57:05;7.50;;;2.70;;
48002;SDS011;33768;48.578;11.574;2023-07-29T02:00:09;2.87;;;2.20;;
48002;SDS011;33768;48.578;11.574;2023-07-29T02:03:19;7.80;;;2.60;;
48002;SDS011;33768;48.578;11.574;2023-07-29T02:06:23;4.60;;;2.80;;
48002;SDS011;33768;48.578;11.574;2023-07-29T02:09:28;5.07;;;2.67;;
48002;SDS011;33768;48.578;11.574;2023-07-29T02:12:34;5.83;;;2.80;;
48002;SDS011;33768;48.578;11.574;2023-07-29T02:15:39;6.90;;;3.50;;
48002;SDS011;33768;48.578;11.574;2023-07-29T02:18:43;4.00;;;3.27;;
48002;SDS011;33768;48.578;11.574;2023-07-29T02:21:47;5.73;;;3.53;;
48002;SDS011;33768;48.578;11.574;2023-07-29T02:24:52;6.13;;;3.30;;
48002;SDS011;33768;48.578;11.574;2023-07-29T02:27:56;5.33;;;3.30;;
48002;SDS011;33768;48.578;11.574;2023-07-29T02:31:13;4.40;;;3.50;;
48002;SDS011;33768;48.578;11.574;2023-07-29T02:34:18;5.47;;;3.30;;
48002;SDS011;33768;48.578;11.574;2023-07-29T02:37:22;4.90;;;3.07;;
48002;SDS011;33768;48.578;11.574;2023-07-29T02:40:26;4.13;;;3.20;;
48002;SDS011;33768;48.578;11.574;2023-07-29T02:43:31;4.53;;;3.13;;
48002;SDS011;33768;48.578;11.574;2023-07-29T02:46:35;8.33;;;3.20;;
48002;SDS011;33768;48.578;11.574;2023-07-29T02:49:39;3.20;;;2.67;;
48002;SDS011;33768;48.578;11.574;2023-07-29T02:52:43;4.47;;;3.00;;
48002;SDS011;33768;48.578;11.574;2023-07-29T02:55:47;4.70;;;2.73;;
48002;SDS011;33768;48.578;11.574;2023-07-29T02:58:51;4.57;;;3.13;;
48002;SDS011;33768;48.578;11.574;2023-07-29T03:01:55;3.83;;;2.90;;
48002;SDS011;33768;48.578;11.574;2023-07-29T03:05:00;3.90;;;2.53;;
48002;SDS011;33768;48.578;11.574;2023-07-29T03:08:04;4.90;;;3.57;;
48002;SDS011;33768;48.578;11.574;2023-07-29T03:11:09;4.40;;;3.17;;
48002;SDS011;33768;48.578;11.574;2023-07-29T03:14:14;3.83;;;2.70;;
48002;SDS011;33768;48.578;11.574;2023-07-29T03:17:19;3.77;;;3.10;;
48002;SDS011;33768;48.578;11.574;2023-07-29T03:20:23;4.60;;;3.33;;
48002;SDS011;33768;48.578;11.574;2023-07-29T03:23:27;4.77;;;3.23;;
48002;SDS011;33768;48.578;11.574;2023-07-29T03:26:32;3.90;;;3.10;;
48002;SDS011;33768;48.578;11.574;2023-07-29T03:29:36;4.63;;;3.40;;
48002;SDS011;33768;48.578;11.574;2023-07-29T03:32:43;4.27;;;3.43;;
48002;SDS011;33768;48.578;11.574;2023-07-29T03:35:49;3.47;;;2.90;;
48002;SDS011;33768;48.578;11.574;2023-07-29T03:38:54;5.87;;;3.33;;
48002;SDS011;33768;48.578;11.574;2023-07-29T03:41:58;6.23;;;2.90;;
48002;SDS011;33768;48.578;11.574;2023-07-29T03:45:02;5.03;;;3.20;;
48002;SDS011;33768;48.578;11.574;2023-07-29T03:48:06;4.67;;;3.33;;
48002;SDS011;33768;48.578;11.574;2023-07-29T03:51:11;5.20;;;3.30;;
48002;SDS011;33768;48.578;11.574;2023-07-29T03:54:15;7.57;;;4.10;;
48002;SDS011;33768;48.578;11.574;2023-07-29T03:57:20;6.87;;;3.60;;
48002;SDS011;33768;48.578;11.574;2023-07-29T04:00:24;6.30;;;3.53;;
48002;SDS011;33768;48.578;11.574;2023-07-29T04:03:28;4.90;;;3.10;;
48002;SDS011;33768;48.578;11.574;2023-07-29T04:06:33;3.97;;;3.13;;
48002;SDS011;33768;48.578;11.574;2023-07-29T04:09:37;7.00;;;3.60;;
48002;SDS011;33768;48.578;11.574;2023-07-29T04:12:42;8.10;;;3.30;;
48002;SDS011;33768;48.578;11.574;2023-07-29T04:15:47;10.60;;;3.73;;
48002;SDS011;33768;48.578;11.574;2023-07-29T04:18:51;7.37;;;3.47;;
48002;SDS011;33768;48.578;11.574;2023-07-29T04:21:55;5.03;;;3.23;;
48002;SDS011;33768;48.578;11.574;2023-07-29T04:24:59;3.50;;;3.20;;
48002;SDS011;33768;48.578;11.574;2023-07-29T04:28:04;11.57;;;3.33;;
48002;SDS011;33768;48.578;11.574;2023-07-29T04:31:09;5.33;;;3.27;;
48002;SDS011;33768;48.578;11.574;2023-07-29T04:34:13;4.43;;;3.47;;
48002;SDS011;33768;48.578;11.574;2023-07-29T04:37:16;6.13;;;3.50;;
48002;SDS011;33768;48.578;11.574;2023-07-29T04:40:21;4.17;;;3.23;;
48002;SDS011;33768;48.578;11.574;2023-07-29T04:43:27;5.43;;;3.27;;
48002;SDS011;33768;48.578;11.574;2023-07-29T04:46:32;6.30;;;3.33;;
48002;SDS011;33768;48.578;11.574;2023-07-29T04:49:36;4.13;;;3.17;;
48002;SDS011;33768;48.578;11.574;2023-07-29T04:52:41;5.33;;;3.20;;
48002;SDS011;33768;48.578;11.574;2023-07-29T04:55:46;6.47;;;3.03;;
48002;SDS011;33768;48.578;11.574;2023-07-29T04:58:50;4.13;;;3.20;;
48002;SDS011;33768;48.578;11.574;2023-07-29T05:01:54;5.63;;;3.60;;
48002;SDS011;33768;48.578;11.574;2023-07-29T05:04:58;6.60;;;3.70;;
48002;SDS011;33768;48.578;11.574;2023-07-29T05:08:03;3.67;;;2.87;;
48002;SDS011;33768;48.578;11.574;2023-07-29T05:11:07;5.13;;;3.33;;
48002;SDS011;33768;48.578;11.574;2023-07-29T05:14:12;6.73;;;3.40;;
48002;SDS011;33768;48.578;11.574;2023-07-29T05:17:16;6.30;;;3.37;;
48002;SDS011;33768;48.578;11.574;2023-07-29T05:20:21;5.43;;;3.30;;
48002;SDS011;33768;48.578;11.574;2023-07-29T05:23:25;6.37;;;3.60;;
48002;SDS011;33768;48.578;11.574;2023-07-29T05:26:29;5.67;;;3.70;;
48002;SDS011;33768;48.578;11.574;2023-07-29T05:29:33;5.43;;;3.73;;
48002;SDS011;33768;48.578;11.574;2023-07-29T05:32:37;5.67;;;3.43;;
48002;SDS011;33768;48.578;11.574;2023-07-29T05:35:43;5.67;;;3.37;;
48002;SDS011;33768;48.578;11.574;2023-07-29T05:38:48;4.37;;;3.00;;
48002;SDS011;33768;48.578;11.574;2023-07-29T05:41:53;5.20;;;2.83;;
48002;SDS011;33768;48.578;11.574;2023-07-29T05:44:57;3.90;;;3.30;;
48002;SDS011;33768;48.578;11.574;2023-07-29T05:48:01;5.43;;;3.47;;
48002;SDS011;33768;48.578;11.574;2023-07-29T05:51:06;4.37;;;3.17;;
48002;SDS011;33768;48.578;11.574;2023-07-29T05:54:10;4.13;;;2.90;;
48002;SDS011;33768;48.578;11.574;2023-07-29T05:57:14;4.67;;;2.70;;
48002;SDS011;33768;48.578;11.574;2023-07-29T06:00:18;4.77;;;2.80;;
48002;SDS011;33768;48.578;11.574;2023-07-29T06:03:22;5.80;;;2.40;;
48002;SDS011;33768;48.578;11.574;2023-07-29T06:06:29;3.47;;;2.90;;
48002;SDS011;33768;48.578;11.574;2023-07-29T06:09:33;4.70;;;2.70;;
48002;SDS011;33768;48.578;11.574;2023-07-29T06:12:37;3.90;;;2.80;;
48002;SDS011;33768;48.578;11.574;2023-07-29T06:15:42;5.10;;;2.80;;
48002;SDS011;33768;48.578;11.574;2023-07-29T06:18:46;4.40;;;2.87;;
48002;SDS011;33768;48.578;11.574;2023-07-29T06:21:51;4.13;;;2.70;;
48002;SDS011;33768;48.578;11.574;2023-07-29T06:24:55;4.77;;;2.20;;
48002;SDS011;33768;48.578;11.574;2023-07-29T06:28:00;6.07;;;2.30;;
48002;SDS011;33768;48.578;11.574;2023-07-29T06:31:04;4.00;;;2.50;;
48002;SDS011;33768;48.578;11.574;2023-07-29T06:34:08;5.50;;;2.43;;
48002;SDS011;33768;48.578;11.574;2023-07-29T06:37:12;4.27;;;2.87;;
48002;SDS011;33768;48.578;11.574;2023-07-29T06:40:16;2.50;;;2.30;;
48002;SDS011;33768;48.578;11.574;2023-07-29T06:43:20;4.77;;;2.67;;
48002;SDS011;33768;48.578;11.574;2023-07-29T06:46:25;5.87;;;2.40;;
48002;SDS011;33768;48.578;11.574;2023-07-29T06:49:30;2.63;;;2.27;;
48002;SDS011;33768;48.578;11.574;2023-07-29T06:52:34;4.57;;;2.90;;
48002;SDS011;33768;48.578;11.574;2023-07-29T06:55:38;6.40;;;2.60;;
48002;SDS011;33768;48.578;11.574;2023-07-29T06:58:43;3.73;;;2.50;;
48002;SDS011;33768;48.578;11.574;2023-07-29T07:01:47;2.80;;;2.10;;
48002;SDS011;33768;48.578;11.574;2023-07-29T07:04:51;3.70;;;3.13;;
48002;SDS011;33768;48.578;11.574;2023-07-29T07:07:56;4.90;;;2.50;;
48002;SDS011;33768;48.578;11.574;2023-07-29T07:11:00;3.63;;;3.10;;
48002;SDS011;33768;48.578;11.574;2023-07-29T07:14:04;3.40;;;3.10;;
48002;SDS011;33768;48.578;11.574;2023-07-29T07:17:07;3.00;;;2.60;;
48002;SDS011;33768;48.578;11.574;2023-07-29T07:20:12;2.77;;;2.57;;
48002;SDS011;33768;48.578;11.574;2023-07-29T07:23:16;3.33;;;2.30;;
48002;SDS011;33768;48.578;11.574;2023-07-29T07:26:21;3.73;;;2.57;;
48002;SDS011;33768;48.578;11.574;2023-07-29T07:29:25;4.70;;;2.50;;
48002;SDS011;33768;48.578;11.574;2023-07-29T07:32:29;4.23;;;2.70;;
48002;SDS011;33768;48.578;11.574;2023-07-29T07:35:33;2.37;;;2.13;;
48002;SDS011;33768;48.578;11.574;2023-07-29T07:38:37;2.77;;;2.30;;
48002;SDS011;33768;48.578;11.574;2023-07-29T07:41:41;3.10;;;2.77;;
48002;SDS011;33768;48.578;11.574;2023-07-29T07:44:46;5.90;;;2.27;;
48002;SDS011;33768;48.578;11.574;2023-07-29T07:47:51;3.20;;;2.30;;
48002;SDS011;33768;48.578;11.574;2023-07-29T07:50:57;5.00;;;2.33;;
48002;SDS011;33768;48.578;11.574;2023-07-29T07:54:01;3.77;;;2.20;;
48002;SDS011;33768;48.578;11.574;2023-07-29T07:57:05;7.43;;;3.00;;
48002;SDS011;33768;48.578;11.574;2023-07-29T08:00:09;3.20;;;2.37;;
48002;SDS011;33768;48.578;11.574;2023-07-29T08:03:17;3.97;;;2.87;;
48002;SDS011;33768;48.578;11.574;2023-07-29T08:06:21;2.93;;;2.63;;
48002;SDS011;33768;48.578;11.574;2023-07-29T08:09:26;5.97;;;2.60;;
48002;SDS011;33768;48.578;11.574;2023-07-29T08:12:30;2.73;;;2.53;;
48002;SDS011;33768;48.578;11.574;2023-07-29T08:15:34;4.93;;;2.73;;
48002;SDS011;33768;48.578;11.574;2023-07-29T08:18:38;4.30;;;2.67;;
48002;SDS011;33768;48.578;11.574;2023-07-29T08:21:42;6.77;;;3.13;;
48002;SDS011;33768;48.578;11.574;2023-07-29T08:24:47;4.23;;;2.70;;
48002;SDS011;33768;48.578;11.574;2023-07-29T08:27:51;2.33;;;2.13;;
48002;SDS011;33768;48.578;11.574;2023-07-29T08:30:55;2.80;;;2.43;;
48002;SDS011;33768;48.578;11.574;2023-07-29T08:33:59;3.97;;;2.30;;
48002;SDS011;33768;48.578;11.574;2023-07-29T08:37:03;3.13;;;2.30;;
48002;SDS011;33768;48.578;11.574;2023-07-29T08:40:07;6.13;;;2.50;;
48002;SDS011;33768;48.578;11.574;2023-07-29T08:43:12;2.97;;;2.30;;
48002;SDS011;33768;48.578;11.574;2023-07-29T08:46:19;2.87;;;2.47;;
48002;SDS011;33768;48.578;11.574;2023-07-29T08:49:24;3.20;;;2.27;;
48002;SDS011;33768;48.578;11.574;2023-07-29T08:52:29;5.43;;;2.40;;
48002;SDS011;33768;48.578;11.574;2023-07-29T08:55:35;3.07;;;2.70;;
48002;SDS011;33768;48.578;11.574;2023-07-29T08:58:40;5.13;;;2.17;;
48002;SDS011;33768;48.578;11.574;2023-07-29T09:01:45;3.63;;;2.40;;
48002;SDS011;33768;48.578;11.574;2023-07-29T09:04:50;3.83;;;2.80;;
48002;SDS011;33768;48.578;11.574;2023-07-29T09:07:54;4.00;;;3.60;;
48002;SDS011;33768;48.578;11.574;2023-07-29T09:10:59;3.90;;;2.50;;
48002;SDS011;33768;48.578;11.574;2023-07-29T09:14:04;3.10;;;2.60;;
48002;SDS011;33768;48.578;11.574;2023-07-29T09:17:08;3.40;;;2.70;;
48002;SDS011;33768;48.578;11.574;2023-07-29T09:20:13;4.30;;;2.50;;
48002;SDS011;33768;48.578;11.574;2023-07-29T09:23:17;5.13;;;2.60;;
48002;SDS011;33768;48.578;11.574;2023-07-29T09:26:25;4.17;;;2.53;;
48002;SDS011;33768;48.578;11.574;2023-07-29T09:29:30;2.90;;;2.60;;
48002;SDS011;33768;48.578;11.574;2023-07-29T09:32:35;4.00;;;2.53;;
48002;SDS011;33768;48.578;11.574;2023-07-29T09:35:42;2.43;;;2.10;;
48002;SDS011;33768;48.578;11.574;2023-07-29T09:38:48;2.90;;;2.60;;
48002;SDS011;33768;48.578;11.574;2023-07-29T09:41:56;5.00;;;4.50;;
48002;SDS011;33768;48.578;11.574;2023-07-29T09:45:00;23.73;;;17.50;;
48002;SDS011;33768;48.578;11.574;2023-07-29T09:48:05;19.17;;;14.88;;
48002;SDS011;33768;48.578;11.574;2023-07-29T09:51:14;4.22;;;3.47;;
48002;SDS011;33768;48.578;11.574;2023-07-29T09:54:19;3.20;;;2.90;;
48002;SDS011;33768;48.578;11.574;2023-07-29T09:57:24;4.03;;;2.85;;
48002;SDS011;33768;48.578;11.574;2023-07-29T10:00:28;5.00;;;2.85;;
48002;SDS011;33768;48.578;11.574;2023-07-29T10:03:34;5.18;;;2.78;;
48002;SDS011;33768;48.578;11.574;2023-07-29T10:06:39;4.13;;;2.90;;
48002;SDS011;33768;48.578;11.574;2023-07-29T10:09:45;3.53;;;2.63;;
48002;SDS011;33768;48.578;11.574;2023-07-29T10:12:50;4.57;;;2.80;;
48002;SDS011;33768;48.578;11.574;2023-07-29T10:15:54;3.03;;;2.72;;
48002;SDS011;33768;48.578;11.574;2023-07-29T10:18:59;6.03;;;3.08;;
48002;SDS011;33768;48.578;11.574;2023-07-29T10:22:04;2.90;;;2.55;;
48002;SDS011;33768;48.578;11.574;2023-07-29T10:25:17;5.53;;;3.05;;
48002;SDS011;33768;48.578;11.574;2023-07-29T10:28:22;5.23;;;2.87;;
48002;SDS011;33768;48.578;11.574;2023-07-29T10:31:29;3.90;;;2.87;;
48002;SDS011;33768;48.578;11.574;2023-07-29T10:34:34;4.03;;;2.77;;
48002;SDS011;33768;48.578;11.574;2023-07-29T10:37:40;4.37;;;3.10;;
48002;SDS011;33768;48.578;11.574;2023-07-29T10:40:52;3.23;;;2.60;;
48002;SDS011;33768;48.578;11.574;2023-07-29T10:43:59;5.10;;;4.20;;
48002;SDS011;33768;48.578;11.574;2023-07-29T10:47:10;6.43;;;4.63;;
48002;SDS011;33768;48.578;11.574;2023-07-29T10:50:22;5.93;;;3.33;;
48002;SDS011;33768;48.578;11.574;2023-07-29T10:53:29;5.87;;;3.30;;
48002;SDS011;33768;48.578;11.574;2023-07-29T10:56:35;5.40;;;3.27;;
48002;SDS011;33768;48.578;11.574;2023-07-29T10:59:40;3.60;;;2.57;;
48002;SDS011;33768;48.578;11.574;2023-07-29T11:02:44;4.07;;;2.57;;
48002;SDS011;33768;48.578;11.574;2023-07-29T11:06:04;3.13;;;2.53;;
48002;SDS011;33768;48.578;11.574;2023-07-29T11:09:39;3.50;;;2.37;;
48002;SDS011;33768;48.578;11.574;2023-07-29T11:15:51;2.27;;;2.00;;
48002;SDS011;33768;48.578;11.574;2023-07-29T11:18:57;1.92;;;1.80;;
48002;SDS011;33768;48.578;11.574;2023-07-29T11:22:03;3.95;;;2.40;;
48002;SDS011;33768;48.578;11.574;2023-07-29T11:25:08;5.72;;;2.10;;
48002;SDS011;33768;48.578;11.574;2023-07-29T11:28:14;2.45;;;2.10;;
48002;SDS011;33768;48.578;11.574;2023-07-29T11:31:18;2.72;;;2.00;;
48002;SDS011;33768;48.578;11.574;2023-07-29T11:34:33;3.88;;;2.17;;
48002;SDS011;33768;48.578;11.574;2023-07-29T11:37:37;5.03;;;3.70;;
48002;SDS011;33768;48.578;11.574;2023-07-29T11:40:42;6.43;;;4.93;;
48002;SDS011;33768;48.578;11.574;2023-07-29T11:43:46;3.13;;;2.08;;
48002;SDS011;33768;48.578;11.574;2023-07-29T11:46:50;3.03;;;2.00;;
48002;SDS011;33768;48.578;11.574;2023-07-29T11:49:57;3.42;;;2.00;;
48002;SDS011;33768;48.578;11.574;2023-07-29T11:53:03;3.95;;;2.05;;
48002;SDS011;33768;48.578;11.574;2023-07-29T11:56:07;2.83;;;2.20;;
48002;SDS011;33768;48.578;11.574;2023-07-29T11:59:11;3.58;;;1.70;;
48002;SDS011;33768;48.578;11.574;2023-07-29T12:02:18;5.70;;;1.90;;
48002;SDS011;33768;48.578;11.574;2023-07-29T12:05:23;2.22;;;1.90;;
48002;SDS011;33768;48.578;11.574;2023-07-29T12:08:28;2.85;;;1.90;;
48002;SDS011;33768;48.578;11.574;2023-07-29T12:11:33;2.15;;;1.95;;
48002;SDS011;33768;48.578;11.574;2023-07-29T12:14:36;3.15;;;1.50;;
48002;SDS011;33768;48.578;11.574;2023-07-29T12:17:41;1.90;;;1.70;;
48002;SDS011;33768;48.578;11.574;2023-07-29T12:20:45;2.25;;;1.70;;
48002;SDS011;33768;48.578;11.574;2023-07-29T12:23:50;2.08;;;1.50;;
48002;SDS011;33768;48.578;11.574;2023-07-29T12:26:55;1.85;;;1.58;;
48002;SDS011;33768;48.578;11.574;2023-07-29T12:30:00;1.83;;;1.67;;
48002;SDS011;33768;48.578;11.574;2023-07-29T12:33:08;1.80;;;1.60;;
48002;SDS011;33768;48.578;11.574;2023-07-29T12:36:11;3.00;;;1.52;;
48002;SDS011;33768;48.578;11.574;2023-07-29T12:39:23;4.35;;;1.70;;
48002;SDS011;33768;48.578;11.574;2023-07-29T12:42:30;4.15;;;1.70;;
48002;SDS011;33768;48.578;11.574;2023-07-29T12:45:38;1.70;;;1.60;;
48002;SDS011;33768;48.578;11.574;2023-07-29T12:48:43;1.83;;;1.50;;
48002;SDS011;33768;48.578;11.574;2023-07-29T12:51:47;3.60;;;1.60;;
48002;SDS011;33768;48.578;11.574;2023-07-29T12:54:51;2.00;;;1.55;;
48002;SDS011;33768;48.578;11.574;2023-07-29T12:57:56;1.65;;;1.40;;
48002;SDS011;33768;48.578;11.574;2023-07-29T13:01:02;2.17;;;1.55;;
48002;SDS011;33768;48.578;11.574;2023-07-29T13:04:06;2.80;;;1.40;;
48002;SDS011;33768;48.578;11.574;2023-07-29T13:07:10;1.60;;;1.40;;
48002;SDS011;33768;48.578;11.574;2023-07-29T13:10:14;2.05;;;1.30;;
48002;SDS011;33768;48.578;11.574;2023-07-29T13:13:18;2.53;;;1.25;;
48002;SDS011;33768;48.578;11.574;2023-07-29T13:16:22;1.63;;;1.50;;
48002;SDS011;33768;48.578;11.574;2023-07-29T13:19:27;1.70;;;1.60;;
48002;SDS011;33768;48.578;11.574;2023-07-29T13:22:31;1.67;;;1.30;;
48002;SDS011;33768;48.578;11.574;2023-07-29T13:25:35;3.63;;;1.60;;
48002;SDS011;33768;48.578;11.574;2023-07-29T13:28:39;1.27;;;1.17;;
48002;SDS011;33768;48.578;11.574;2023-07-29T13:31:43;2.90;;;1.50;;
48002;SDS011;33768;48.578;11.574;2023-07-29T13:34:47;2.13;;;1.40;;
48002;SDS011;33768;48.578;11.574;2023-07-29T13:37:51;1.85;;;1.60;;
48002;SDS011;33768;48.578;11.574;2023-07-29T13:40:55;1.98;;;1.60;;
48002;SDS011;33768;48.578;11.574;2023-07-29T13:44:00;2.90;;;1.80;;
48002;SDS011;33768;48.578;11.574;2023-07-29T13:47:04;2.40;;;1.90;;
48002;SDS011;33768;48.578;11.574;2023-07-29T13:50:10;3.65;;;1.60;;
48002;SDS011;33768;48.578;11.574;2023-07-29T13:53:14;1.77;;;1.40;;
48002;SDS011;33768;48.578;11.574;2023-07-29T13:56:18;1.50;;;1.40;;
48002;SDS011;33768;48.578;11.574;2023-07-29T13:59:22;2.53;;;1.67;;
48002;SDS011;33768;48.578;11.574;2023-07-29T14:02:26;2.75;;;1.25;;
48002;SDS011;33768;48.578;11.574;2023-07-29T14:05:30;1.60;;;1.33;;
48002;SDS011;33768;48.578;11.574;2023-07-29T14:08:34;1.52;;;1.42;;
48002;SDS011;33768;48.578;11.574;2023-07-29T14:11:39;1.75;;;1.23;;
48002;SDS011;33768;48.578;11.574;2023-07-29T14:14:43;1.70;;;1.40;;
48002;SDS011;33768;48.578;11.574;2023-07-29T14:17:47;1.63;;;1.38;;
48002;SDS011;33768;48.578;11.574;2023-07-29T14:20:51;1.92;;;1.30;;
48002;SDS011;33768;48.578;11.574;2023-07-29T14:23:55;1.63;;;1.52;;
48002;SDS011;33768;48.578;11.574;2023-07-29T14:26:59;1.70;;;1.27;;
48002;SDS011;33768;48.578;11.574;2023-07-29T14:30:04;2.22;;;1.30;;
48002;SDS011;33768;48.578;11.574;2023-07-29T14:33:08;2.15;;;1.40;;
48002;SDS011;33768;48.578;11.574;2023-07-29T14:36:12;1.35;;;1.17;;
48002;SDS011;33768;48.578;11.574;2023-07-29T14:39:17;2.47;;;1.45;;
48002;SDS011;33768;48.578;11.574;2023-07-29T14:42:21;2.67;;;1.45;;
48002;SDS011;33768;48.578;11.574;2023-07-29T14:45:26;1.58;;;1.25;;
48002;SDS011;33768;48.578;11.574;2023-07-29T14:48:30;1.48;;;1.27;;
48002;SDS011;33768;48.578;11.574;2023-07-29T14:51:34;2.22;;;1.50;;
48002;SDS011;33768;48.578;11.574;2023-07-29T14:54:38;1.90;;;1.45;;
48002;SDS011;33768;48.578;11.574;2023-07-29T14:57:43;2.08;;;1.30;;
48002;SDS011;33768;48.578;11.574;2023-07-29T15:00:47;2.72;;;1.40;;
48002;SDS011;33768;48.578;11.574;2023-07-29T15:03:51;1.50;;;1.13;;
48002;SDS011;33768;48.578;11.574;2023-07-29T15:06:55;1.83;;;1.23;;
48002;SDS011;33768;48.578;11.574;2023-07-29T15:09:59;5.97;;;1.30;;
48002;SDS011;33768;48.578;11.574;2023-07-29T15:13:03;1.90;;;1.30;;
48002;SDS011;33768;48.578;11.574;2023-07-29T15:16:07;1.40;;;1.27;;
48002;SDS011;33768;48.578;11.574;2023-07-29T15:19:11;1.48;;;1.25;;
48002;SDS011;33768;48.578;11.574;2023-07-29T15:22:16;1.50;;;1.10;;
48002;SDS011;33768;48.578;11.574;2023-07-29T15:25:20;1.30;;;1.08;;
48002;SDS011;33768;48.578;11.574;2023-07-29T15:28:25;1.52;;;1.42;;
48002;SDS011;33768;48.578;11.574;2023-07-29T15:31:29;1.30;;;1.20;;
48002;SDS011;33768;48.578;11.574;2023-07-29T15:34:33;3.95;;;1.48;;
48002;SDS011;33768;48.578;11.574;2023-07-29T15:37:38;2.40;;;1.40;;
48002;SDS011;33768;48.578;11.574;2023-07-29T15:40:42;2.08;;;1.52;;
48002;SDS011;33768;48.578;11.574;2023-07-29T15:43:46;1.70;;;1.60;;
48002;SDS011;33768;48.578;11.574;2023-07-29T15:46:50;2.97;;;1.15;;
48002;SDS011;33768;48.578;11.574;2023-07-29T15:49:59;1.77;;;1.50;;
48002;SDS011;33768;48.578;11.574;2023-07-29T15:53:03;1.48;;;1.20;;
48002;SDS011;33768;48.578;11.574;2023-07-29T15:56:07;2.15;;;1.40;;
48002;SDS011;33768;48.578;11.574;2023-07-29T15:59:12;5.10;;;1.30;;
48002;SDS011;33768;48.578;11.574;2023-07-29T16:02:16;1.58;;;1.20;;
48002;SDS011;33768;48.578;11.574;2023-07-29T16:05:20;2.10;;;1.25;;
48002;SDS011;33768;48.578;11.574;2023-07-29T16:08:24;1.30;;;1.20;;
48002;SDS011;33768;48.578;11.574;2023-07-29T16:11:28;2.15;;;1.45;;
48002;SDS011;33768;48.578;11.574;2023-07-29T16:14:32;1.63;;;1.20;;
48002;SDS011;33768;48.578;11.574;2023-07-29T16:17:37;2.28;;;1.42;;
48002;SDS011;33768;48.578;11.574;2023-07-29T16:20:41;1.88;;;1.50;;
48002;SDS011;33768;48.578;11.574;2023-07-29T16:23:44;1.30;;;1.20;;
48002;SDS011;33768;48.578;11.574;2023-07-29T16:26:49;3.67;;;1.43;;
48002;SDS011;33768;48.578;11.574;2023-07-29T16:29:53;2.30;;;1.10;;
48002;SDS011;33768;48.578;11.574;2023-07-29T16:32:57;1.53;;;1.20;;
48002;SDS011;33768;48.578;11.574;2023-07-29T16:36:01;1.63;;;1.20;;
48002;SDS011;33768;48.578;11.574;2023-07-29T16:39:05;1.40;;;1.10;;
48002;SDS011;33768;48.578;11.574;2023-07-29T16:42:10;1.40;;;1.00;;
48002;SDS011;33768;48.578;11.574;2023-07-29T16:45:14;2.00;;;1.17;;
48002;SDS011;33768;48.578;11.574;2023-07-29T16:48:18;2.50;;;1.30;;
48002;SDS011;33768;48.578;11.574;2023-07-29T16:51:22;1.53;;;1.10;;
48002;SDS011;33768;48.578;11.574;2023-07-29T16:54:26;2.23;;;1.53;;
48002;SDS011;33768;48.578;11.574;2023-07-29T16:57:31;2.83;;;1.60;;
48002;SDS011;33768;48.578;11.574;2023-07-29T17:00:35;3.23;;;1.53;;
48002;SDS011;33768;48.578;11.574;2023-07-29T17:03:39;3.70;;;1.70;;
48002;SDS011;33768;48.578;11.574;2023-07-29T17:06:43;1.70;;;1.40;;
48002;SDS011;33768;48.578;11.574;2023-07-29T17:09:47;2.00;;;1.50;;
48002;SDS011;33768;48.578;11.574;2023-07-29T17:12:51;2.50;;;1.60;;
48002;SDS011;33768;48.578;11.574;2023-07-29T17:15:56;2.40;;;1.80;;
48002;SDS011;33768;48.578;11.574;2023-07-29T17:19:00;3.70;;;2.20;;
48002;SDS011;33768;48.578;11.574;2023-07-29T17:22:06;2.43;;;2.23;;
48002;SDS011;33768;48.578;11.574;2023-07-29T17:25:10;3.50;;;2.30;;
48002;SDS011;33768;48.578;11.574;2023-07-29T17:28:16;5.67;;;2.63;;
48002;SDS011;33768;48.578;11.574;2023-07-29T17:31:20;2.87;;;2.23;;
48002;SDS011;33768;48.578;11.574;2023-07-29T17:34:24;2.83;;;2.03;;
48002;SDS011;33768;48.578;11.574;2023-07-29T17:37:28;4.47;;;2.67;;
48002;SDS011;33768;48.578;11.574;2023-07-29T17:40:32;4.80;;;2.40;;
48002;SDS011;33768;48.578;11.574;2023-07-29T17:43:37;3.93;;;2.80;;
48002;SDS011;33768;48.578;11.574;2023-07-29T17:46:47;2.63;;;2.43;;
48002;SDS011;33768;48.578;11.574;2023-07-29T17:49:51;3.20;;;2.40;;
48002;SDS011;33768;48.578;11.574;2023-07-29T17:52:56;3.00;;;2.23;;
48002;SDS011;33768;48.578;11.574;2023-07-29T17:56:01;3.37;;;2.43;;
48002;SDS011;33768;48.578;11.574;2023-07-29T17:59:05;5.70;;;2.40;;
48002;SDS011;33768;48.578;11.574;2023-07-29T18:02:09;4.63;;;2.80;;
48002;SDS011;33768;48.578;11.574;2023-07-29T18:05:13;3.40;;;2.70;;
48002;SDS011;33768;48.578;11.574;2023-07-29T18:08:18;5.83;;;2.87;;
48002;SDS011;33768;48.578;11.574;2023-07-29T18:11:22;3.83;;;2.50;;
48002;SDS011;33768;48.578;11.574;2023-07-29T18:14:26;3.10;;;2.63;;
48002;SDS011;33768;48.578;11.574;2023-07-29T18:17:31;4.67;;;2.40;;
48002;SDS011;33768;48.578;11.574;2023-07-29T18:20:36;5.40;;;2.30;;
48002;SDS011;33768;48.578;11.574;2023-07-29T18:23:40;3.03;;;2.30;;